TPL weather

Draughon Miller Central Texas Regional Airport
Temple, Texas, United States

Public forecast

Using degrees Fahrenheit for public forecast. Weather courtesy of forecast.io.

METAR (pilot weather report)

Retrieved 2019/06/20 09:51 UTC (43 minutes ago):

KTPL 200951Z AUTO 08009KT 10SM SCT016 OVC022 23/ A2984 RMK AO2 LTG DSNT NE AND E SLP104 T0228

TAF (pilot weather forecast)

Closest forecast is Robert Gray Army Air Field Airport, 22.2 nm (41.2 km) WSW. Retrieved 2019/06/20 08:09 UTC (2 hours ago):

TAF KGRK 200800Z 2008/2114 19009KT 9999 FEW030 SCT200 QNH2975INS BECMG 2010/2011 18009KT 9999 BKN020 QNH2977INS BECMG 2013/2014 20015G20KT 9999 FEW060 SCT150 QNH2972INS BECMG 2100/2101 17012KT 9999 FEW030 SCT250 QNH2976INS TX36/2021Z TN23/2008Z